sensor_id;sensor_type;location;lat;lon;timestamp;P1;durP1;ratioP1;P2;durP2;ratioP2
2558;SDS011;1289;53.488;10.006;2023-05-21T00:01:22;5.80;;;4.00;;
2558;SDS011;1289;53.488;10.006;2023-05-21T00:03:49;4.93;;;4.10;;
2558;SDS011;1289;53.488;10.006;2023-05-21T00:06:16;4.53;;;4.07;;
2558;SDS011;1289;53.488;10.006;2023-05-21T00:08:46;5.30;;;4.80;;
2558;SDS011;1289;53.488;10.006;2023-05-21T00:11:12;5.43;;;4.27;;
2558;SDS011;1289;53.488;10.006;2023-05-21T00:13:39;4.33;;;3.93;;
2558;SDS011;1289;53.488;10.006;2023-05-21T00:16:06;5.57;;;4.10;;
2558;SDS011;1289;53.488;10.006;2023-05-21T00:18:35;4.30;;;3.90;;
2558;SDS011;1289;53.488;10.006;2023-05-21T00:21:03;6.23;;;4.80;;
2558;SDS011;1289;53.488;10.006;2023-05-21T00:23:30;5.93;;;4.57;;
2558;SDS011;1289;53.488;10.006;2023-05-21T00:25:58;9.30;;;4.87;;
2558;SDS011;1289;53.488;10.006;2023-05-21T00:28:25;7.00;;;4.50;;
2558;SDS011;1289;53.488;10.006;2023-05-21T00:30:52;5.87;;;5.00;;
2558;SDS011;1289;53.488;10.006;2023-05-21T00:33:18;5.80;;;4.30;;
2558;SDS011;1289;53.488;10.006;2023-05-21T00:35:46;4.93;;;4.53;;
2558;SDS011;1289;53.488;10.006;2023-05-21T00:38:12;5.13;;;4.30;;
2558;SDS011;1289;53.488;10.006;2023-05-21T00:40:41;4.67;;;4.00;;
2558;SDS011;1289;53.488;10.006;2023-05-21T00:43:09;6.83;;;4.20;;
2558;SDS011;1289;53.488;10.006;2023-05-21T00:45:36;4.60;;;4.20;;
2558;SDS011;1289;53.488;10.006;2023-05-21T00:48:03;5.77;;;4.23;;
2558;SDS011;1289;53.488;10.006;2023-05-21T00:50:31;6.10;;;4.10;;
2558;SDS011;1289;53.488;10.006;2023-05-21T00:52:58;4.90;;;4.00;;
2558;SDS011;1289;53.488;10.006;2023-05-21T00:55:25;4.10;;;3.70;;
2558;SDS011;1289;53.488;10.006;2023-05-21T00:57:51;5.23;;;4.37;;
2558;SDS011;1289;53.488;10.006;2023-05-21T01:00:19;5.80;;;4.80;;
2558;SDS011;1289;53.488;10.006;2023-05-21T01:02:46;6.20;;;5.60;;
2558;SDS011;1289;53.488;10.006;2023-05-21T01:05:13;4.80;;;4.40;;
2558;SDS011;1289;53.488;10.006;2023-05-21T01:07:41;7.17;;;5.30;;
2558;SDS011;1289;53.488;10.006;2023-05-21T01:10:08;4.87;;;4.37;;
2558;SDS011;1289;53.488;10.006;2023-05-21T01:12:36;5.47;;;5.03;;
2558;SDS011;1289;53.488;10.006;2023-05-21T01:15:04;4.90;;;4.07;;
2558;SDS011;1289;53.488;10.006;2023-05-21T01:17:33;7.03;;;4.50;;
2558;SDS011;1289;53.488;10.006;2023-05-21T01:19:59;5.30;;;4.70;;
2558;SDS011;1289;53.488;10.006;2023-05-21T01:22:28;4.47;;;3.97;;
2558;SDS011;1289;53.488;10.006;2023-05-21T01:24:58;9.07;;;4.47;;
2558;SDS011;1289;53.488;10.006;2023-05-21T01:27:27;6.50;;;4.87;;
2558;SDS011;1289;53.488;10.006;2023-05-21T01:29:54;5.30;;;4.57;;
2558;SDS011;1289;53.488;10.006;2023-05-21T01:32:22;4.30;;;3.90;;
2558;SDS011;1289;53.488;10.006;2023-05-21T01:34:55;5.70;;;4.70;;
2558;SDS011;1289;53.488;10.006;2023-05-21T01:37:26;4.90;;;4.40;;
2558;SDS011;1289;53.488;10.006;2023-05-21T01:39:56;8.43;;;4.43;;
2558;SDS011;1289;53.488;10.006;2023-05-21T01:42:28;6.17;;;5.03;;
2558;SDS011;1289;53.488;10.006;2023-05-21T01:44:56;6.10;;;4.30;;
2558;SDS011;1289;53.488;10.006;2023-05-21T01:47:23;4.33;;;3.93;;
2558;SDS011;1289;53.488;10.006;2023-05-21T01:49:51;5.60;;;4.20;;
2558;SDS011;1289;53.488;10.006;2023-05-21T01:52:18;4.30;;;3.90;;
2558;SDS011;1289;53.488;10.006;2023-05-21T01:54:45;4.93;;;4.50;;
2558;SDS011;1289;53.488;10.006;2023-05-21T01:57:15;4.80;;;4.30;;
2558;SDS011;1289;53.488;10.006;2023-05-21T01:59:42;4.83;;;4.23;;
2558;SDS011;1289;53.488;10.006;2023-05-21T02:02:09;5.63;;;4.57;;
2558;SDS011;1289;53.488;10.006;2023-05-21T02:04:36;4.50;;;3.90;;
2558;SDS011;1289;53.488;10.006;2023-05-21T02:07:05;6.57;;;4.33;;
2558;SDS011;1289;53.488;10.006;2023-05-21T02:09:32;6.03;;;4.70;;
2558;SDS011;1289;53.488;10.006;2023-05-21T02:11:58;7.70;;;5.20;;
2558;SDS011;1289;53.488;10.006;2023-05-21T02:14:26;8.80;;;4.40;;
2558;SDS011;1289;53.488;10.006;2023-05-21T02:16:54;6.30;;;5.20;;
2558;SDS011;1289;53.488;10.006;2023-05-21T02:19:21;4.60;;;4.20;;
2558;SDS011;1289;53.488;10.006;2023-05-21T02:21:47;5.23;;;4.83;;
2558;SDS011;1289;53.488;10.006;2023-05-21T02:24:14;7.80;;;4.83;;
2558;SDS011;1289;53.488;10.006;2023-05-21T02:26:40;5.37;;;4.37;;
2558;SDS011;1289;53.488;10.006;2023-05-21T02:29:07;4.67;;;4.27;;
2558;SDS011;1289;53.488;10.006;2023-05-21T02:31:35;5.00;;;4.60;;
2558;SDS011;1289;53.488;10.006;2023-05-21T02:34:03;4.57;;;4.17;;
2558;SDS011;1289;53.488;10.006;2023-05-21T02:36:29;8.57;;;5.00;;
2558;SDS011;1289;53.488;10.006;2023-05-21T02:38:57;5.70;;;4.17;;
2558;SDS011;1289;53.488;10.006;2023-05-21T02:41:26;5.10;;;4.60;;
2558;SDS011;1289;53.488;10.006;2023-05-21T02:43:52;6.17;;;4.40;;
2558;SDS011;1289;53.488;10.006;2023-05-21T02:46:19;6.13;;;4.50;;
2558;SDS011;1289;53.488;10.006;2023-05-21T02:48:47;7.80;;;4.50;;
2558;SDS011;1289;53.488;10.006;2023-05-21T02:51:14;5.57;;;4.27;;
2558;SDS011;1289;53.488;10.006;2023-05-21T02:53:40;6.40;;;4.47;;
2558;SDS011;1289;53.488;10.006;2023-05-21T02:56:07;5.57;;;4.37;;
2558;SDS011;1289;53.488;10.006;2023-05-21T02:58:34;7.37;;;5.60;;
2558;SDS011;1289;53.488;10.006;2023-05-21T03:01:00;5.43;;;4.87;;
2558;SDS011;1289;53.488;10.006;2023-05-21T03:03:27;4.90;;;4.40;;
2558;SDS011;1289;53.488;10.006;2023-05-21T03:05:55;5.20;;;4.30;;
2558;SDS011;1289;53.488;10.006;2023-05-21T03:08:22;4.97;;;4.47;;
2558;SDS011;1289;53.488;10.006;2023-05-21T03:10:50;4.30;;;3.77;;
2558;SDS011;1289;53.488;10.006;2023-05-21T03:13:17;7.60;;;4.53;;
2558;SDS011;1289;53.488;10.006;2023-05-21T03:15:43;5.17;;;4.53;;
2558;SDS011;1289;53.488;10.006;2023-05-21T03:18:10;6.83;;;5.10;;
2558;SDS011;1289;53.488;10.006;2023-05-21T03:20:37;7.37;;;5.10;;
2558;SDS011;1289;53.488;10.006;2023-05-21T03:23:09;4.90;;;4.43;;
2558;SDS011;1289;53.488;10.006;2023-05-21T03:25:37;11.50;;;4.30;;
2558;SDS011;1289;53.488;10.006;2023-05-21T03:28:04;7.27;;;4.57;;
2558;SDS011;1289;53.488;10.006;2023-05-21T03:30:49;4.30;;;3.90;;
2558;SDS011;1289;53.488;10.006;2023-05-21T03:33:31;8.00;;;4.40;;
2558;SDS011;1289;53.488;10.006;2023-05-21T03:35:59;6.20;;;4.40;;
2558;SDS011;1289;53.488;10.006;2023-05-21T03:38:30;5.40;;;4.90;;
2558;SDS011;1289;53.488;10.006;2023-05-21T03:40:57;5.10;;;4.60;;
2558;SDS011;1289;53.488;10.006;2023-05-21T03:43:24;5.40;;;4.90;;
2558;SDS011;1289;53.488;10.006;2023-05-21T03:45:51;4.87;;;4.37;;
2558;SDS011;1289;53.488;10.006;2023-05-21T03:48:38;6.13;;;4.60;;
2558;SDS011;1289;53.488;10.006;2023-05-21T03:51:06;6.80;;;4.90;;
2558;SDS011;1289;53.488;10.006;2023-05-21T03:53:35;8.73;;;4.70;;
2558;SDS011;1289;53.488;10.006;2023-05-21T03:56:02;9.00;;;5.30;;
2558;SDS011;1289;53.488;10.006;2023-05-21T03:58:30;5.63;;;5.13;;
2558;SDS011;1289;53.488;10.006;2023-05-21T04:00:57;6.90;;;5.40;;
2558;SDS011;1289;53.488;10.006;2023-05-21T04:03:26;5.30;;;4.80;;
2558;SDS011;1289;53.488;10.006;2023-05-21T04:05:53;6.47;;;5.53;;
2558;SDS011;1289;53.488;10.006;2023-05-21T04:08:21;6.03;;;3.87;;
2558;SDS011;1289;53.488;10.006;2023-05-21T04:10:49;6.50;;;4.83;;
2558;SDS011;1289;53.488;10.006;2023-05-21T04:13:15;6.13;;;5.53;;
2558;SDS011;1289;53.488;10.006;2023-05-21T04:15:42;5.47;;;4.77;;
2558;SDS011;1289;53.488;10.006;2023-05-21T04:18:10;6.20;;;5.60;;
2558;SDS011;1289;53.488;10.006;2023-05-21T04:20:37;5.30;;;4.80;;
2558;SDS011;1289;53.488;10.006;2023-05-21T04:23:04;5.87;;;4.80;;
2558;SDS011;1289;53.488;10.006;2023-05-21T04:25:31;6.37;;;4.63;;
2558;SDS011;1289;53.488;10.006;2023-05-21T04:27:59;6.03;;;5.37;;
2558;SDS011;1289;53.488;10.006;2023-05-21T04:30:26;6.07;;;5.10;;
2558;SDS011;1289;53.488;10.006;2023-05-21T04:32:52;7.63;;;4.97;;
2558;SDS011;1289;53.488;10.006;2023-05-21T04:35:19;5.70;;;5.20;;
2558;SDS011;1289;53.488;10.006;2023-05-21T04:37:47;6.07;;;5.37;;
2558;SDS011;1289;53.488;10.006;2023-05-21T04:40:14;7.03;;;5.30;;
2558;SDS011;1289;53.488;10.006;2023-05-21T04:42:43;6.20;;;4.60;;
2558;SDS011;1289;53.488;10.006;2023-05-21T04:45:12;9.63;;;5.63;;
2558;SDS011;1289;53.488;10.006;2023-05-21T04:47:41;7.40;;;4.90;;
2558;SDS011;1289;53.488;10.006;2023-05-21T04:50:08;5.83;;;4.73;;
2558;SDS011;1289;53.488;10.006;2023-05-21T04:52:36;9.83;;;5.37;;
2558;SDS011;1289;53.488;10.006;2023-05-21T04:55:04;7.03;;;5.60;;
2558;SDS011;1289;53.488;10.006;2023-05-21T04:57:31;10.20;;;6.10;;
2558;SDS011;1289;53.488;10.006;2023-05-21T04:59:59;10.23;;;5.60;;
2558;SDS011;1289;53.488;10.006;2023-05-21T05:02:31;5.70;;;4.80;;
2558;SDS011;1289;53.488;10.006;2023-05-21T05:04:58;5.33;;;4.83;;
2558;SDS011;1289;53.488;10.006;2023-05-21T05:07:25;5.57;;;5.07;;
2558;SDS011;1289;53.488;10.006;2023-05-21T05:09:51;8.07;;;5.30;;
2558;SDS011;1289;53.488;10.006;2023-05-21T05:12:18;10.13;;;5.47;;
2558;SDS011;1289;53.488;10.006;2023-05-21T05:14:45;5.73;;;5.20;;
2558;SDS011;1289;53.488;10.006;2023-05-21T05:17:11;5.83;;;5.33;;
2558;SDS011;1289;53.488;10.006;2023-05-21T05:19:42;5.70;;;5.20;;
2558;SDS011;1289;53.488;10.006;2023-05-21T05:22:09;6.83;;;5.53;;
2558;SDS011;1289;53.488;10.006;2023-05-21T05:24:36;9.10;;;6.10;;
2558;SDS011;1289;53.488;10.006;2023-05-21T05:27:02;6.17;;;5.17;;
2558;SDS011;1289;53.488;10.006;2023-05-21T05:29:29;6.50;;;5.10;;
2558;SDS011;1289;53.488;10.006;2023-05-21T05:31:56;5.43;;;4.93;;
2558;SDS011;1289;53.488;10.006;2023-05-21T05:34:22;6.23;;;5.63;;
2558;SDS011;1289;53.488;10.006;2023-05-21T05:36:50;5.90;;;5.30;;
2558;SDS011;1289;53.488;10.006;2023-05-21T05:39:17;8.73;;;5.90;;
2558;SDS011;1289;53.488;10.006;2023-05-21T05:41:44;6.60;;;5.60;;
2558;SDS011;1289;53.488;10.006;2023-05-21T05:44:11;8.27;;;6.30;;
2558;SDS011;1289;53.488;10.006;2023-05-21T05:46:38;10.27;;;5.97;;
2558;SDS011;1289;53.488;10.006;2023-05-21T05:49:04;7.53;;;6.17;;
2558;SDS011;1289;53.488;10.006;2023-05-21T05:51:31;6.83;;;6.20;;
2558;SDS011;1289;53.488;10.006;2023-05-21T05:53:59;6.93;;;6.17;;
2558;SDS011;1289;53.488;10.006;2023-05-21T05:56:25;8.20;;;5.67;;
2558;SDS011;1289;53.488;10.006;2023-05-21T05:58:52;10.63;;;5.97;;
2558;SDS011;1289;53.488;10.006;2023-05-21T06:01:19;7.80;;;6.03;;
2558;SDS011;1289;53.488;10.006;2023-05-21T06:03:49;6.80;;;6.13;;
2558;SDS011;1289;53.488;10.006;2023-05-21T06:06:16;7.40;;;6.70;;
2558;SDS011;1289;53.488;10.006;2023-05-21T06:08:43;6.33;;;5.83;;
2558;SDS011;1289;53.488;10.006;2023-05-21T06:11:12;9.97;;;6.90;;
2558;SDS011;1289;53.488;10.006;2023-05-21T06:13:41;7.60;;;6.47;;
2558;SDS011;1289;53.488;10.006;2023-05-21T06:16:08;10.40;;;6.27;;
2558;SDS011;1289;53.488;10.006;2023-05-21T06:18:36;6.97;;;6.30;;
2558;SDS011;1289;53.488;10.006;2023-05-21T06:21:03;7.50;;;6.47;;
2558;SDS011;1289;53.488;10.006;2023-05-21T06:23:30;11.23;;;7.20;;
2558;SDS011;1289;53.488;10.006;2023-05-21T06:25:57;7.73;;;6.90;;
2558;SDS011;1289;53.488;10.006;2023-05-21T06:28:26;8.23;;;7.20;;
2558;SDS011;1289;53.488;10.006;2023-05-21T06:30:53;8.83;;;6.53;;
2558;SDS011;1289;53.488;10.006;2023-05-21T06:33:20;7.47;;;6.80;;
2558;SDS011;1289;53.488;10.006;2023-05-21T06:35:47;7.03;;;6.33;;
2558;SDS011;1289;53.488;10.006;2023-05-21T06:38:13;7.10;;;6.40;;
2558;SDS011;1289;53.488;10.006;2023-05-21T06:40:41;7.93;;;7.13;;
2558;SDS011;1289;53.488;10.006;2023-05-21T06:43:11;9.63;;;8.10;;
2558;SDS011;1289;53.488;10.006;2023-05-21T06:46:09;10.17;;;8.10;;
2558;SDS011;1289;53.488;10.006;2023-05-21T06:48:38;7.67;;;6.87;;
2558;SDS011;1289;53.488;10.006;2023-05-21T06:51:04;7.77;;;7.07;;
2558;SDS011;1289;53.488;10.006;2023-05-21T06:53:31;7.27;;;6.67;;
2558;SDS011;1289;53.488;10.006;2023-05-21T06:55:59;7.37;;;6.63;;
2558;SDS011;1289;53.488;10.006;2023-05-21T06:58:33;9.07;;;7.40;;
2558;SDS011;1289;53.488;10.006;2023-05-21T07:01:00;8.47;;;7.67;;
2558;SDS011;1289;53.488;10.006;2023-05-21T07:03:29;8.10;;;7.40;;
2558;SDS011;1289;53.488;10.006;2023-05-21T07:05:55;8.87;;;7.40;;
2558;SDS011;1289;53.488;10.006;2023-05-21T07:08:22;8.50;;;7.70;;
2558;SDS011;1289;53.488;10.006;2023-05-21T07:10:49;9.70;;;8.20;;
2558;SDS011;1289;53.488;10.006;2023-05-21T07:13:16;8.47;;;7.70;;
2558;SDS011;1289;53.488;10.006;2023-05-21T07:15:43;9.00;;;8.13;;
2558;SDS011;1289;53.488;10.006;2023-05-21T07:18:10;9.80;;;7.83;;
2558;SDS011;1289;53.488;10.006;2023-05-21T07:20:38;10.30;;;7.93;;
2558;SDS011;1289;53.488;10.006;2023-05-21T07:23:09;10.93;;;8.33;;
2558;SDS011;1289;53.488;10.006;2023-05-21T07:25:35;9.10;;;8.10;;
2558;SDS011;1289;53.488;10.006;2023-05-21T07:28:02;11.00;;;8.80;;
2558;SDS011;1289;53.488;10.006;2023-05-21T07:30:29;9.73;;;8.10;;
2558;SDS011;1289;53.488;10.006;2023-05-21T07:32:56;8.57;;;7.77;;
2558;SDS011;1289;53.488;10.006;2023-05-21T07:35:23;8.30;;;7.60;;
2558;SDS011;1289;53.488;10.006;2023-05-21T07:37:52;9.27;;;8.37;;
2558;SDS011;1289;53.488;10.006;2023-05-21T07:40:19;9.20;;;8.40;;
2558;SDS011;1289;53.488;10.006;2023-05-21T07:42:46;9.27;;;8.47;;
2558;SDS011;1289;53.488;10.006;2023-05-21T07:45:16;10.13;;;9.00;;
2558;SDS011;1289;53.488;10.006;2023-05-21T07:47:43;10.27;;;9.20;;
2558;SDS011;1289;53.488;10.006;2023-05-21T07:50:12;10.97;;;9.43;;
2558;SDS011;1289;53.488;10.006;2023-05-21T07:52:40;10.20;;;9.20;;
2558;SDS011;1289;53.488;10.006;2023-05-21T07:55:08;10.90;;;9.87;;
2558;SDS011;1289;53.488;10.006;2023-05-21T07:57:37;11.27;;;10.10;;
2558;SDS011;1289;53.488;10.006;2023-05-21T08:00:10;12.43;;;10.47;;
2558;SDS011;1289;53.488;10.006;2023-05-21T08:02:41;11.63;;;9.20;;
2558;SDS011;1289;53.488;10.006;2023-05-21T08:05:09;10.43;;;9.33;;
2558;SDS011;1289;53.488;10.006;2023-05-21T08:07:36;10.70;;;9.60;;
2558;SDS011;1289;53.488;10.006;2023-05-21T08:10:04;11.33;;;9.50;;
2558;SDS011;1289;53.488;10.006;2023-05-21T08:12:32;9.77;;;8.87;;
2558;SDS011;1289;53.488;10.006;2023-05-21T08:14:59;11.63;;;10.43;;
2558;SDS011;1289;53.488;10.006;2023-05-21T08:17:26;9.63;;;8.77;;
2558;SDS011;1289;53.488;10.006;2023-05-21T08:19:53;11.30;;;10.20;;
2558;SDS011;1289;53.488;10.006;2023-05-21T08:22:20;10.87;;;9.77;;
2558;SDS011;1289;53.488;10.006;2023-05-21T08:24:48;13.83;;;10.67;;
2558;SDS011;1289;53.488;10.006;2023-05-21T08:27:14;10.63;;;9.63;;
2558;SDS011;1289;53.488;10.006;2023-05-21T08:29:43;12.60;;;11.40;;
2558;SDS011;1289;53.488;10.006;2023-05-21T08:32:09;12.03;;;10.93;;
2558;SDS011;1289;53.488;10.006;2023-05-21T08:34:36;10.57;;;9.67;;
2558;SDS011;1289;53.488;10.006;2023-05-21T08:37:19;12.40;;;11.20;;
2558;SDS011;1289;53.488;10.006;2023-05-21T08:40:06;12.80;;;11.47;;
2558;SDS011;1289;53.488;10.006;2023-05-21T08:42:38;12.33;;;11.03;;
2558;SDS011;1289;53.488;10.006;2023-05-21T08:45:14;13.30;;;11.90;;
2558;SDS011;1289;53.488;10.006;2023-05-21T08:47:43;11.70;;;10.63;;
2558;SDS011;1289;53.488;10.006;2023-05-21T08:50:13;13.00;;;11.70;;
2558;SDS011;1289;53.488;10.006;2023-05-21T08:52:43;11.67;;;10.53;;
2558;SDS011;1289;53.488;10.006;2023-05-21T08:55:10;12.47;;;11.27;;
2558;SDS011;1289;53.488;10.006;2023-05-21T08:57:38;12.93;;;11.57;;
2558;SDS011;1289;53.488;10.006;2023-05-21T09:00:08;12.47;;;11.17;;
2558;SDS011;1289;53.488;10.006;2023-05-21T09:02:38;12.83;;;11.50;;
2558;SDS011;1289;53.488;10.006;2023-05-21T09:05:08;14.33;;;12.20;;
2558;SDS011;1289;53.488;10.006;2023-05-21T09:07:38;14.20;;;12.80;;
2558;SDS011;1289;53.488;10.006;2023-05-21T09:10:23;14.37;;;13.00;;
2558;SDS011;1289;53.488;10.006;2023-05-21T09:12:55;14.40;;;13.10;;
2558;SDS011;1289;53.488;10.006;2023-05-21T09:15:21;14.90;;;13.50;;
2558;SDS011;1289;53.488;10.006;2023-05-21T09:17:50;15.03;;;12.93;;
2558;SDS011;1289;53.488;10.006;2023-05-21T09:20:37;13.97;;;12.60;;
2558;SDS011;1289;53.488;10.006;2023-05-21T09:23:04;13.87;;;12.50;;
2558;SDS011;1289;53.488;10.006;2023-05-21T09:25:36;15.00;;;13.40;;
2558;SDS011;1289;53.488;10.006;2023-05-21T09:28:12;16.07;;;14.50;;
2558;SDS011;1289;53.488;10.006;2023-05-21T09:30:42;15.77;;;14.13;;
2558;SDS011;1289;53.488;10.006;2023-05-21T09:33:11;14.07;;;12.77;;
2558;SDS011;1289;53.488;10.006;2023-05-21T09:35:43;15.00;;;13.50;;
2558;SDS011;1289;53.488;10.006;2023-05-21T09:38:10;14.40;;;13.20;;
2558;SDS011;1289;53.488;10.006;2023-05-21T09:40:37;15.00;;;12.23;;
2558;SDS011;1289;53.488;10.006;2023-05-21T09:43:12;14.93;;;13.53;;
2558;SDS011;1289;53.488;10.006;2023-05-21T09:45:39;15.60;;;14.10;;
2558;SDS011;1289;53.488;10.006;2023-05-21T09:48:18;15.23;;;13.63;;
2558;SDS011;1289;53.488;10.006;2023-05-21T09:51:06;15.50;;;13.90;;
2558;SDS011;1289;53.488;10.006;2023-05-21T09:53:41;16.50;;;14.40;;
2558;SDS011;1289;53.488;10.006;2023-05-21T09:56:09;14.20;;;12.80;;
2558;SDS011;1289;53.488;10.006;2023-05-21T09:58:36;15.90;;;14.20;;
2558;SDS011;1289;53.488;10.006;2023-05-21T10:01:03;16.13;;;14.53;;
2558;SDS011;1289;53.488;10.006;2023-05-21T10:03:31;16.50;;;14.40;;
2558;SDS011;1289;53.488;10.006;2023-05-21T10:05:58;14.47;;;13.27;;
2558;SDS011;1289;53.488;10.006;2023-05-21T10:08:26;15.90;;;14.27;;
2558;SDS011;1289;53.488;10.006;2023-05-21T10:10:53;15.83;;;14.30;;
2558;SDS011;1289;53.488;10.006;2023-05-21T10:13:20;15.37;;;13.83;;
2558;SDS011;1289;53.488;10.006;2023-05-21T10:15:49;15.37;;;13.80;;
2558;SDS011;1289;53.488;10.006;2023-05-21T10:18:18;15.43;;;13.90;;
2558;SDS011;1289;53.488;10.006;2023-05-21T10:20:47;15.93;;;14.37;;
2558;SDS011;1289;53.488;10.006;2023-05-21T10:23:14;15.70;;;14.17;;
2558;SDS011;1289;53.488;10.006;2023-05-21T10:25:42;13.27;;;11.97;;
2558;SDS011;1289;53.488;10.006;2023-05-21T10:28:08;14.20;;;12.67;;
2558;SDS011;1289;53.488;10.006;2023-05-21T10:30:35;15.47;;;13.90;;
2558;SDS011;1289;53.488;10.006;2023-05-21T10:33:03;14.73;;;13.23;;
2558;SDS011;1289;53.488;10.006;2023-05-21T10:35:29;14.07;;;12.70;;
2558;SDS011;1289;53.488;10.006;2023-05-21T10:37:58;15.37;;;13.97;;
2558;SDS011;1289;53.488;10.006;2023-05-21T10:40:28;15.00;;;13.70;;
2558;SDS011;1289;53.488;10.006;2023-05-21T10:43:01;14.10;;;12.80;;
2558;SDS011;1289;53.488;10.006;2023-05-21T10:45:41;14.53;;;13.13;;
2558;SDS011;1289;53.488;10.006;2023-05-21T10:48:27;14.60;;;13.30;;
2558;SDS011;1289;53.488;10.006;2023-05-21T10:51:14;13.73;;;12.43;;
2558;SDS011;1289;53.488;10.006;2023-05-21T10:53:50;13.43;;;12.27;;
2558;SDS011;1289;53.488;10.006;2023-05-21T10:56:35;14.60;;;13.13;;
2558;SDS011;1289;53.488;10.006;2023-05-21T10:59:14;14.13;;;11.87;;
2558;SDS011;1289;53.488;10.006;2023-05-21T11:01:46;12.80;;;11.70;;
2558;SDS011;1289;53.488;10.006;2023-05-21T11:04:14;13.70;;;12.47;;
2558;SDS011;1289;53.488;10.006;2023-05-21T11:06:45;13.37;;;12.20;;
2558;SDS011;1289;53.488;10.006;2023-05-21T11:09:13;14.07;;;12.77;;
2558;SDS011;1289;53.488;10.006;2023-05-21T11:11:41;14.13;;;12.73;;
2558;SDS011;1289;53.488;10.006;2023-05-21T11:16:59;14.23;;;12.50;;
2558;SDS011;1289;53.488;10.006;2023-05-21T11:22:21;14.00;;;12.73;;
2558;SDS011;1289;53.488;10.006;2023-05-21T11:24:49;13.80;;;12.50;;
2558;SDS011;1289;53.488;10.006;2023-05-21T11:27:32;13.60;;;12.33;;
2558;SDS011;1289;53.488;10.006;2023-05-21T11:30:02;14.03;;;12.70;;
2558;SDS011;1289;53.488;10.006;2023-05-21T11:32:29;13.53;;;12.33;;
2558;SDS011;1289;53.488;10.006;2023-05-21T11:34:58;12.87;;;11.67;;
2558;SDS011;1289;53.488;10.006;2023-05-21T11:37:26;13.33;;;12.20;;
2558;SDS011;1289;53.488;10.006;2023-05-21T11:39:56;14.67;;;13.17;;
2558;SDS011;1289;53.488;10.006;2023-05-21T11:42:26;13.10;;;11.97;;
2558;SDS011;1289;53.488;10.006;2023-05-21T11:44:57;13.67;;;12.50;;
2558;SDS011;1289;53.488;10.006;2023-05-21T11:47:24;14.43;;;13.10;;
2558;SDS011;1289;53.488;10.006;2023-05-21T11:49:51;13.83;;;12.53;;
2558;SDS011;1289;53.488;10.006;2023-05-21T11:52:18;13.60;;;12.20;;
2558;SDS011;1289;53.488;10.006;2023-05-21T11:54:45;14.60;;;13.37;;
2558;SDS011;1289;53.488;10.006;2023-05-21T11:57:16;14.37;;;13.07;;
2558;SDS011;1289;53.488;10.006;2023-05-21T11:59:44;14.00;;;12.80;;
2558;SDS011;1289;53.488;10.006;2023-05-21T12:02:12;13.70;;;12.27;;
2558;SDS011;1289;53.488;10.006;2023-05-21T12:04:40;15.10;;;13.80;;
2558;SDS011;1289;53.488;10.006;2023-05-21T12:07:06;13.80;;;12.67;;
2558;SDS011;1289;53.488;10.006;2023-05-21T12:09:37;14.60;;;13.30;;
2558;SDS011;1289;53.488;10.006;2023-05-21T12:12:04;12.80;;;11.70;;
2558;SDS011;1289;53.488;10.006;2023-05-21T12:14:33;15.07;;;13.67;;
2558;SDS011;1289;53.488;10.006;2023-05-21T12:16:59;14.37;;;12.63;;
2558;SDS011;1289;53.488;10.006;2023-05-21T12:19:26;14.30;;;12.97;;
2558;SDS011;1289;53.488;10.006;2023-05-21T12:21:53;14.63;;;13.30;;
2558;SDS011;1289;53.488;10.006;2023-05-21T12:24:20;14.87;;;13.63;;
2558;SDS011;1289;53.488;10.006;2023-05-21T12:26:48;13.30;;;12.10;;
2558;SDS011;1289;53.488;10.006;2023-05-21T12:29:16;14.03;;;12.73;;
2558;SDS011;1289;53.488;10.006;2023-05-21T12:31:47;13.30;;;12.20;;
2558;SDS011;1289;53.488;10.006;2023-05-21T12:34:14;15.00;;;13.60;;
2558;SDS011;1289;53.488;10.006;2023-05-21T12:36:43;14.50;;;13.30;;
2558;SDS011;1289;53.488;10.006;2023-05-21T12:39:12;15.03;;;12.63;;
2558;SDS011;1289;53.488;10.006;2023-05-21T12:41:39;13.53;;;12.23;;
2558;SDS011;1289;53.488;10.006;2023-05-21T12:44:05;14.43;;;13.03;;
2558;SDS011;1289;53.488;10.006;2023-05-21T12:46:32;13.13;;;12.00;;
2558;SDS011;1289;53.488;10.006;2023-05-21T12:49:00;13.70;;;12.40;;
2558;SDS011;1289;53.488;10.006;2023-05-21T12:51:36;13.43;;;11.80;;
2558;SDS011;1289;53.488;10.006;2023-05-21T12:54:03;12.93;;;11.73;;
2558;SDS011;1289;53.488;10.006;2023-05-21T12:56:29;14.13;;;12.90;;
2558;SDS011;1289;53.488;10.006;2023-05-21T12:59:11;13.37;;;12.07;;
2558;SDS011;1289;53.488;10.006;2023-05-21T13:01:38;13.43;;;12.20;;
2558;SDS011;1289;53.488;10.006;2023-05-21T13:04:06;12.80;;;11.60;;
2558;SDS011;1289;53.488;10.006;2023-05-21T13:06:40;17.80;;;12.93;;
2558;SDS011;1289;53.488;10.006;2023-05-21T13:09:07;13.70;;;12.50;;
2558;SDS011;1289;53.488;10.006;2023-05-21T13:11:33;16.67;;;12.43;;
2558;SDS011;1289;53.488;10.006;2023-05-21T13:14:00;13.53;;;12.40;;
2558;SDS011;1289;53.488;10.006;2023-05-21T13:16:27;12.43;;;11.37;;
2558;SDS011;1289;53.488;10.006;2023-05-21T13:18:53;13.60;;;12.40;;
2558;SDS011;1289;53.488;10.006;2023-05-21T13:21:21;13.20;;;12.00;;
2558;SDS011;1289;53.488;10.006;2023-05-21T13:23:48;12.87;;;11.77;;
2558;SDS011;1289;53.488;10.006;2023-05-21T13:26:14;12.90;;;11.70;;
2558;SDS011;1289;53.488;10.006;2023-05-21T13:28:41;12.57;;;11.47;;
2558;SDS011;1289;53.488;10.006;2023-05-21T13:31:07;12.50;;;11.30;;
2558;SDS011;1289;53.488;10.006;2023-05-21T13:33:36;15.27;;;11.40;;
2558;SDS011;1289;53.488;10.006;2023-05-21T13:36:02;12.60;;;11.53;;
2558;SDS011;1289;53.488;10.006;2023-05-21T13:38:30;13.43;;;12.30;;
2558;SDS011;1289;53.488;10.006;2023-05-21T13:40:57;12.50;;;11.43;;
2558;SDS011;1289;53.488;10.006;2023-05-21T13:43:24;12.33;;;11.20;;
2558;SDS011;1289;53.488;10.006;2023-05-21T13:45:50;13.30;;;12.10;;
2558;SDS011;1289;53.488;10.006;2023-05-21T13:48:17;12.13;;;11.03;;
2558;SDS011;1289;53.488;10.006;2023-05-21T13:50:43;11.90;;;10.80;;
2558;SDS011;1289;53.488;10.006;2023-05-21T13:53:10;12.90;;;11.90;;
2558;SDS011;1289;53.488;10.006;2023-05-21T13:55:38;12.37;;;11.47;;
2558;SDS011;1289;53.488;10.006;2023-05-21T13:58:05;11.80;;;10.70;;
2558;SDS011;1289;53.488;10.006;2023-05-21T14:00:31;11.40;;;10.40;;
2558;SDS011;1289;53.488;10.006;2023-05-21T14:02:58;11.67;;;10.70;;
2558;SDS011;1289;53.488;10.006;2023-05-21T14:05:24;12.13;;;10.93;;
2558;SDS011;1289;53.488;10.006;2023-05-21T14:07:51;12.50;;;11.20;;
2558;SDS011;1289;53.488;10.006;2023-05-21T14:10:17;12.13;;;11.13;;
2558;SDS011;1289;53.488;10.006;2023-05-21T14:12:46;11.13;;;10.13;;
2558;SDS011;1289;53.488;10.006;2023-05-21T14:15:12;12.20;;;11.10;;
2558;SDS011;1289;53.488;10.006;2023-05-21T14:17:39;12.80;;;11.70;;
2558;SDS011;1289;53.488;10.006;2023-05-21T14:20:06;11.80;;;10.70;;
2558;SDS011;1289;53.488;10.006;2023-05-21T14:22:34;12.70;;;11.57;;
2558;SDS011;1289;53.488;10.006;2023-05-21T14:25:00;12.37;;;11.27;;
2558;SDS011;1289;53.488;10.006;2023-05-21T14:27:27;11.90;;;10.70;;
2558;SDS011;1289;53.488;10.006;2023-05-21T14:29:55;13.20;;;11.37;;
2558;SDS011;1289;53.488;10.006;2023-05-21T14:32:21;11.67;;;10.67;;
2558;SDS011;1289;53.488;10.006;2023-05-21T14:34:48;12.10;;;10.90;;
2558;SDS011;1289;53.488;10.006;2023-05-21T14:37:14;11.30;;;10.20;;
2558;SDS011;1289;53.488;10.006;2023-05-21T14:39:41;11.87;;;10.77;;
2558;SDS011;1289;53.488;10.006;2023-05-21T14:42:08;10.87;;;10.07;;
2558;SDS011;1289;53.488;10.006;2023-05-21T14:44:34;11.17;;;10.03;;
2558;SDS011;1289;53.488;10.006;2023-05-21T14:47:02;11.37;;;10.27;;
2558;SDS011;1289;53.488;10.006;2023-05-21T14:49:29;10.63;;;9.63;;
2558;SDS011;1289;53.488;10.006;2023-05-21T14:51:56;10.53;;;9.63;;
2558;SDS011;1289;53.488;10.006;2023-05-21T14:54:22;11.00;;;10.00;;
2558;SDS011;1289;53.488;10.006;2023-05-21T14:56:49;10.53;;;9.50;;
2558;SDS011;1289;53.488;10.006;2023-05-21T14:59:15;10.77;;;9.80;;
2558;SDS011;1289;53.488;10.006;2023-05-21T15:01:42;10.23;;;9.33;;